Time;durP1;ratioP1;P1;durP2;ratioP2;P2;SDS_P1;SDS_P2;PMS_P1;PMS_P2;Temp;Humidity;BMP_temperature;BMP_pressure;BME280_temperature;BME280_humidity;BME280_pressure;Samples;Min_cycle;Max_cycle;Signal;HPM_P1;HPM_P2
2022/12/17 13:07:43;;;;;;;84.63;38.87;;;;;;;-1.13;100.00;102513.41;10572662;27;20059;-75
2022/12/17 13:12:44;;;;;;;85.40;37.13;;;;;;;-0.95;100.00;102518.16;10538339;27;20901;-74
2022/12/17 13:17:56;;;;;;;78.10;35.97;;;;;;;-1.06;100.00;102522.66;10563596;28;20040;-73
2022/12/17 13:23:08;;;;;;;84.10;36.73;;;;;;;-1.00;100.00;102532.09;10551684;28;20032;-74
2022/12/17 13:28:25;;;;;;;77.93;37.23;;;;;;;-1.18;100.00;102533.72;10599484;28;20027;-74
2022/12/17 13:33:38;;;;;;;74.43;36.50;;;;;;;-1.13;100.00;102531.50;10532008;28;20112;-74
2022/12/17 13:38:56;;;;;;;84.77;36.30;;;;;;;-1.42;100.00;102527.66;10573290;28;20063;-74
2022/12/17 13:44:15;;;;;;;80.57;36.27;;;;;;;-1.45;100.00;102536.06;10522728;28;20067;-74
2022/12/17 13:49:17;;;;;;;93.73;40.53;;;;;;;-1.36;100.00;102533.53;10541186;28;20070;-75
2022/12/17 13:54:18;;;;;;;81.53;34.87;;;;;;;-1.72;100.00;102476.31;10559700;28;20058;-75
2022/12/17 13:59:21;;;;;;;92.33;36.23;;;;;;;-1.39;100.00;102534.63;10538409;28;20055;-74
2022/12/17 14:04:26;;;;;;;81.13;36.17;;;;;;;-1.54;100.00;102523.34;10559277;28;20047;-75
2022/12/17 14:09:32;;;;;;;92.90;39.10;;;;;;;-1.85;100.00;102488.19;10551335;28;20040;-75
2022/12/17 14:14:40;;;;;;;78.43;38.47;;;;;;;-1.53;100.00;102552.06;10545665;27;20039;-76
2022/12/17 14:19:41;;;;;;;85.07;35.60;;;;;;;-1.65;100.00;102556.69;10586478;27;20503;-75
2022/12/17 14:24:41;;;;;;;85.83;36.00;;;;;;;-1.69;100.00;102559.78;10553340;27;20023;-76
2022/12/17 14:29:45;;;;;;;89.77;39.67;;;;;;;-1.73;100.00;102559.19;10525347;27;20032;-75
2022/12/17 14:34:45;;;;;;;93.60;38.63;;;;;;;-1.75;100.00;102554.91;10557952;28;20047;-75
2022/12/17 14:39:46;;;;;;;94.10;38.23;;;;;;;-1.73;100.00;102566.44;10566760;27;20051;-76
2022/12/17 14:45:01;;;;;;;89.53;36.73;;;;;;;-1.77;100.00;102575.78;10516199;28;20048;-76
2022/12/17 14:50:10;;;;;;;89.53;38.23;;;;;;;-1.77;100.00;102581.19;10558821;27;20047;-76
2022/12/17 14:55:26;;;;;;;80.10;34.17;;;;;;;-1.92;100.00;102562.59;10586900;27;20039;-76
2022/12/17 15:00:27;;;;;;;91.70;37.47;;;;;;;-1.94;100.00;102569.97;10578477;27;20044;-76
2022/12/17 15:05:27;;;;;;;84.13;34.83;;;;;;;-1.93;100.00;102574.38;10568480;28;20530;-75
2022/12/17 15:10:28;;;;;;;92.73;36.93;;;;;;;-1.96;100.00;102569.25;10585525;27;20032;-76
2022/12/17 15:15:28;;;;;;;90.57;37.03;;;;;;;-2.19;100.00;102556.84;10550579;27;20065;-77
2022/12/17 15:20:29;;;;;;;108.93;42.63;;;;;;;-2.17;100.00;102573.75;10551323;27;20039;-75
2022/12/17 15:25:29;;;;;;;93.23;38.13;;;;;;;-2.25;100.00;102561.78;10533294;27;20059;-77
2022/12/17 15:30:30;;;;;;;94.20;35.27;;;;;;;-2.35;100.00;102554.59;10567794;27;20031;-77
2022/12/17 15:35:30;;;;;;;99.63;36.23;;;;;;;-2.54;100.00;102568.72;10568807;27;20043;-76
2022/12/17 15:40:31;;;;;;;105.93;37.40;;;;;;;-2.65;100.00;102567.78;10568785;27;20035;-77
2022/12/17 15:45:31;;;;;;;93.70;36.93;;;;;;;-2.64;100.00;102591.06;10581197;28;20050;-77
2022/12/17 15:50:32;;;;;;;110.50;40.03;;;;;;;-2.68;100.00;102603.06;10550302;27;20051;-76
2022/12/17 15:55:32;;;;;;;105.27;37.47;;;;;;;-2.64;100.00;102595.59;10566642;27;20038;-76
2022/12/17 16:00:33;;;;;;;116.97;38.40;;;;;;;-2.65;100.00;102585.78;10528844;28;20036;-76
2022/12/17 16:05:33;;;;;;;108.70;36.20;;;;;;;-2.64;100.00;102607.25;10557353;28;20059;-75
2022/12/17 16:10:34;;;;;;;108.03;36.13;;;;;;;-2.71;100.00;102603.34;10579421;28;20032;-75
2022/12/17 16:15:34;;;;;;;119.97;38.00;;;;;;;-2.81;100.00;102596.09;10566145;27;20040;-77
2022/12/17 16:20:35;;;;;;;102.37;35.93;;;;;;;-2.80;100.00;102620.25;10549114;27;20087;-77
2022/12/17 16:25:35;;;;;;;109.20;35.70;;;;;;;-2.88;100.00;102625.38;10536184;28;20115;-76
2022/12/17 16:30:36;;;;;;;100.17;36.73;;;;;;;-2.85;100.00;102622.47;10546237;28;20643;-76
2022/12/17 16:35:36;;;;;;;115.53;39.60;;;;;;;-2.73;100.00;102634.06;10540088;27;20497;-75
2022/12/17 16:40:36;;;;;;;122.40;37.67;;;;;;;-2.88;100.00;102611.91;10566823;28;20472;-75
2022/12/17 16:45:45;;;;;;;116.80;36.30;;;;;;;-3.61;100.00;102530.59;10582297;28;20038;-75
2022/12/17 16:50:46;;;;;;;117.50;36.53;;;;;;;-2.89;100.00;102647.94;10543727;27;20431;-76
2022/12/17 16:55:47;;;;;;;112.37;34.97;;;;;;;-3.00;100.00;102639.84;10548686;27;20397;-76
2022/12/17 17:00:52;;;;;;;116.13;40.73;;;;;;;-3.12;100.00;102641.66;10581889;27;20126;-76
2022/12/17 17:05:53;;;;;;;89.32;28.27;;;;;;;-3.08;100.00;102644.03;10566301;28;20067;-76
2022/12/17 17:10:53;;;;;;;125.40;39.47;;;;;;;-3.05;100.00;102648.31;10548078;27;20396;-76
2022/12/17 17:15:54;;;;;;;115.00;35.40;;;;;;;-3.08;100.00;102660.19;10546513;28;20506;-76
2022/12/17 17:21:04;;;;;;;111.83;38.67;;;;;;;-3.14;100.00;102657.09;10546769;28;20527;-76
2022/12/17 17:26:05;;;;;;;116.67;40.60;;;;;;;-3.11;100.00;102655.03;10564001;28;20081;-76
2022/12/17 17:31:09;;;;;;;123.80;41.53;;;;;;;-3.08;100.00;102654.78;10562925;28;20039;-75
2022/12/17 17:36:11;;;;;;;122.93;40.70;;;;;;;-3.06;100.00;102646.56;10564724;28;20035;-75
2022/12/17 17:41:13;;;;;;;137.17;40.67;;;;;;;-3.03;100.00;102661.66;10546385;28;20036;-77
2022/12/17 17:46:15;;;;;;;132.57;45.83;;;;;;;-3.10;100.00;102662.16;10559961;28;20058;-76
2022/12/17 17:51:18;;;;;;;128.20;42.07;;;;;;;-3.19;100.00;102641.28;10582358;27;20028;-77
2022/12/17 17:56:20;;;;;;;125.03;42.13;;;;;;;-3.16;100.00;102651.84;10554525;27;20035;-76
2022/12/17 18:01:29;;;;;;;133.07;43.60;;;;;;;-3.14;100.00;102649.00;10522924;28;20106;-77
2022/12/17 18:06:29;;;;;;;138.37;43.23;;;;;;;-3.18;100.00;102652.91;10554720;28;20047;-77
2022/12/17 18:11:30;;;;;;;158.57;47.67;;;;;;;-3.14;100.00;102681.34;10554002;27;20035;-77
2022/12/17 18:16:34;;;;;;;143.33;46.23;;;;;;;-3.23;100.00;102674.00;10569530;27;20155;-77
2022/12/17 18:21:35;;;;;;;138.17;45.87;;;;;;;-3.18;100.00;102683.44;10554331;28;20165;-76
2022/12/17 18:26:38;;;;;;;133.70;47.27;;;;;;;-3.16;100.00;102694.06;10570465;27;20113;-77
2022/12/17 18:31:38;;;;;;;137.37;47.47;;;;;;;-3.17;100.00;102686.97;10533896;28;20708;-76
2022/12/17 18:36:40;;;;;;;130.20;46.57;;;;;;;-3.28;100.00;102674.34;10485346;28;20054;-76
2022/12/17 18:47:00;;;;;;;133.47;47.53;;;;;;;-3.28;100.00;102687.81;10554352;27;20039;-77
2022/12/17 18:52:00;;;;;;;144.50;51.20;;;;;;;-3.32;100.00;102680.97;10571777;27;20081;-76
2022/12/17 18:57:01;;;;;;;146.00;53.13;;;;;;;-3.36;100.00;102684.88;10529063;27;20136;-75
2022/12/17 19:02:01;;;;;;;159.10;54.53;;;;;;;-3.42;100.00;102698.81;10530707;27;20087;-76
2022/12/17 19:07:02;;;;;;;169.93;55.17;;;;;;;-3.37;100.00;102712.75;10510534;27;20035;-76
2022/12/17 19:12:03;;;;;;;167.40;57.07;;;;;;;-3.35;100.00;102724.28;10513835;28;20036;-77
2022/12/17 19:17:04;;;;;;;168.13;57.97;;;;;;;-3.41;100.00;102730.13;10524367;28;20074;-74
2022/12/17 19:22:05;;;;;;;168.30;58.50;;;;;;;-3.47;100.00;102702.69;10533918;28;21745;-77
2022/12/17 19:27:06;;;;;;;159.90;57.30;;;;;;;-3.46;100.00;102717.88;10530835;28;20052;-77
2022/12/17 19:32:06;;;;;;;171.30;57.07;;;;;;;-3.46;100.00;102715.16;10525098;27;20044;-77
2022/12/17 19:37:07;;;;;;;165.80;57.67;;;;;;;-3.50;100.00;102713.69;10529502;27;20511;-77
2022/12/17 19:42:23;;;;;;;179.07;58.33;;;;;;;-3.58;100.00;102705.34;10521532;27;20424;-78
2022/12/17 19:47:23;;;;;;;159.80;56.80;;;;;;;-3.53;100.00;102713.09;10538699;28;20040;-77
2022/12/17 19:52:24;;;;;;;160.90;57.90;;;;;;;-3.53;100.00;102705.88;10509343;27;20097;-77
2022/12/17 19:57:24;;;;;;;169.93;58.40;;;;;;;-3.53;100.00;102729.25;10509513;28;20040;-77
2022/12/17 20:02:25;;;;;;;162.30;56.27;;;;;;;-3.64;100.00;102740.78;10523358;27;20160;-78
2022/12/17 20:07:25;;;;;;;173.00;59.53;;;;;;;-3.61;100.00;102740.59;10599168;27;20040;-77
2022/12/17 20:12:26;;;;;;;151.87;53.47;;;;;;;-3.65;100.00;102742.63;10550403;28;20625;-78
2022/12/17 20:17:26;;;;;;;154.17;56.47;;;;;;;-3.65;100.00;102739.09;10581871;27;20051;-77
2022/12/17 20:22:27;;;;;;;170.40;61.23;;;;;;;-3.57;100.00;102744.75;10536827;28;20063;-77
2022/12/17 20:27:27;;;;;;;178.27;61.97;;;;;;;-3.52;100.00;102758.72;10582410;27;20040;-76
2022/12/17 20:32:28;;;;;;;171.73;61.63;;;;;;;-3.47;100.00;102771.88;10564977;27;20050;-78
2022/12/17 20:37:28;;;;;;;163.07;56.60;;;;;;;-3.63;100.00;102734.47;10562679;27;20416;-78
2022/12/17 20:42:29;;;;;;;160.30;59.17;;;;;;;-3.72;100.00;102741.41;10564254;28;20429;-77
2022/12/17 20:47:29;;;;;;;164.77;59.20;;;;;;;-3.60;100.00;102755.75;10564318;27;20039;-77
2022/12/17 20:52:30;;;;;;;159.33;56.60;;;;;;;-3.63;100.00;102745.22;10553486;27;20032;-75
2022/12/17 20:57:30;;;;;;;160.00;60.53;;;;;;;-3.57;100.00;102758.22;10549544;28;20043;-77
2022/12/17 21:02:31;;;;;;;159.30;56.33;;;;;;;-3.55;100.00;102761.66;10526008;28;20082;-78
2022/12/17 21:07:31;;;;;;;140.23;54.83;;;;;;;-3.56;100.00;102753.69;10564751;27;20044;-78
2022/12/17 21:13:27;;;;;;;154.90;54.13;;;;;;;-3.58;100.00;102748.41;10538558;28;20519;-77
2022/12/17 21:17:52;;;;;;;157.47;51.30;;;;;;;-3.54;100.00;102755.28;10550231;28;20044;-78
2022/12/17 21:22:53;;;;;;;157.03;55.17;;;;;;;-3.60;100.00;102755.75;10547590;28;20036;-77
2022/12/17 21:27:53;;;;;;;141.07;51.77;;;;;;;-4.04;100.00;102687.28;10579584;28;20035;-78
2022/12/17 21:32:54;;;;;;;129.00;48.67;;;;;;;-3.69;100.00;102767.22;10583143;28;20050;-78
2022/12/17 21:37:54;;;;;;;143.27;49.40;;;;;;;-3.83;100.00;102765.53;10560965;28;20413;-78
2022/12/17 21:43:00;;;;;;;125.63;48.33;;;;;;;-3.85;100.00;102754.88;10581760;28;20035;-78
2022/12/17 21:48:01;;;;;;;146.77;53.17;;;;;;;-3.75;100.00;102756.91;10581460;28;20035;-77
2022/12/17 21:53:02;;;;;;;124.33;48.93;;;;;;;-3.76;100.00;102768.63;10565247;28;20055;-79
2022/12/17 21:58:02;;;;;;;122.67;46.27;;;;;;;-3.91;100.00;102763.41;10547322;28;20044;-79
2022/12/17 22:03:03;;;;;;;133.57;46.37;;;;;;;-4.02;100.00;102787.56;10580370;28;20062;-79
2022/12/17 22:08:04;;;;;;;138.67;53.60;;;;;;;-4.05;100.00;102779.72;10555152;28;20036;-78
2022/12/17 22:14:05;;;;;;;137.67;50.80;;;;;;;-4.04;100.00;102791.34;10564498;28;20043;-78
2022/12/17 22:18:34;;;;;;;138.33;45.03;;;;;;;-4.09;100.00;102791.69;10537729;28;20048;-73
2022/12/17 22:23:34;;;;;;;147.50;51.07;;;;;;;-4.04;100.00;102805.66;10566798;28;20036;-78
2022/12/17 22:28:35;;;;;;;147.97;51.50;;;;;;;-4.13;100.00;102800.94;10556457;28;20043;-77
2022/12/17 22:33:36;;;;;;;127.50;47.97;;;;;;;-4.18;100.00;102795.03;10550519;27;20039;-76
2022/12/17 22:38:36;;;;;;;137.87;52.03;;;;;;;-4.13;100.00;102807.19;10589286;27;20036;-77
2022/12/17 22:43:37;;;;;;;128.00;47.80;;;;;;;-4.23;100.00;102794.50;10570471;27;20042;-77
2022/12/17 22:48:37;;;;;;;125.60;48.30;;;;;;;-4.22;100.00;102828.47;10587104;27;20069;-77
2022/12/17 22:53:38;;;;;;;122.57;52.10;;;;;;;-4.28;100.00;102830.66;10587309;27;20040;-77
2022/12/17 22:58:38;;;;;;;138.57;52.90;;;;;;;-4.29;100.00;102810.09;10586080;27;20103;-77
2022/12/17 23:03:39;;;;;;;150.83;50.80;;;;;;;-4.30;100.00;102810.19;10587628;27;20130;-77
2022/12/17 23:08:39;;;;;;;128.50;47.90;;;;;;;-4.42;100.00;102803.00;10569428;27;20032;-77
2022/12/17 23:13:40;;;;;;;132.73;48.47;;;;;;;-4.40;100.00;102809.13;10529759;27;20096;-76
2022/12/17 23:18:41;;;;;;;127.97;48.00;;;;;;;-4.45;100.00;102817.53;10582833;27;20474;-77
2022/12/17 23:23:41;;;;;;;134.90;44.77;;;;;;;-4.57;100.00;102807.63;10588001;27;20036;-77
2022/12/17 23:28:42;;;;;;;137.10;47.20;;;;;;;-4.67;100.00;102789.47;10568352;27;20416;-77
2022/12/17 23:33:43;;;;;;;139.13;49.80;;;;;;;-4.71;100.00;102817.53;10585055;27;20058;-77
2022/12/17 23:38:43;;;;;;;131.13;47.33;;;;;;;-4.61;100.00;102808.81;10566489;27;20526;-77
2022/12/17 23:43:44;;;;;;;156.77;51.10;;;;;;;-4.59;100.00;102804.19;10576697;28;20051;-75
2022/12/17 23:48:45;;;;;;;141.13;52.93;;;;;;;-4.76;100.00;102790.09;10562332;28;20145;-77
2022/12/17 23:53:46;;;;;;;144.40;54.17;;;;;;;-4.66;100.00;102801.94;10602858;27;20063;-76
2022/12/17 23:58:46;;;;;;;160.27;51.90;;;;;;;-4.49;100.00;102811.50;10567356;28;20440;-77
